Time;durP1;ratioP1;P1;durP2;ratioP2;P2;SDS_P1;SDS_P2;PMS_P1;PMS_P2;Temp;Humidity;BMP_temperature;BMP_pressure;BME280_temperature;BME280_humidity;BME280_pressure;Samples;Min_cycle;Max_cycle;Signal;HPM_P1;HPM_P2
2021/06/23 00:01:14;;;;;;;63.00;59.00;;;14.30;99.90;;;;;;5033597;28;20476;-63
2021/06/23 00:03:42;;;;;;;54.80;51.10;;;14.40;99.90;;;;;;5033544;28;20022;-62
2021/06/23 00:06:10;;;;;;;52.60;49.03;;;14.60;99.90;;;;;;5033408;28;20432;-62
2021/06/23 00:08:37;;;;;;;50.67;47.35;;;14.80;99.90;;;;;;5033362;28;20029;-64
2021/06/23 00:11:06;;;;;;;52.40;48.70;;;14.90;99.90;;;;;;5033366;28;20108;-63
2021/06/23 00:13:35;;;;;;;50.35;47.05;;;15.20;99.90;;;;;;5033352;28;20075;-63
2021/06/23 00:16:06;;;;;;;54.67;50.95;;;15.30;99.90;;;;;;5033600;28;20071;-62
2021/06/23 00:18:34;;;;;;;55.05;51.55;;;15.40;99.90;;;;;;5032379;28;20136;-62
2021/06/23 00:21:02;;;;;;;56.92;53.53;;;15.50;99.90;;;;;;5033202;28;20148;-62
2021/06/23 00:23:29;;;;;;;56.03;52.72;;;15.50;99.90;;;;;;5033341;28;20021;-63
2021/06/23 00:25:57;;;;;;;52.25;49.05;;;15.80;99.90;;;;;;5033309;28;20025;-62
2021/06/23 00:28:25;;;;;;;53.65;50.38;;;15.90;99.90;;;;;;5033063;28;20022;-63
2021/06/23 00:30:52;;;;;;;53.60;50.40;;;16.00;99.90;;;;;;5033085;28;20139;-62
2021/06/23 00:33:22;;;;;;;54.22;50.80;;;16.20;99.90;;;;;;5031684;28;20025;-63
2021/06/23 00:35:49;;;;;;;48.45;45.65;;;16.20;99.90;;;;;;5031647;28;20430;-63
2021/06/23 00:38:17;;;;;;;45.10;42.40;;;16.50;99.90;;;;;;5032931;28;20028;-62
2021/06/23 00:40:45;;;;;;;45.65;42.95;;;16.40;99.90;;;;;;5032896;28;20160;-62
2021/06/23 00:43:14;;;;;;;47.85;45.25;;;16.50;99.90;;;;;;5032917;28;20093;-62
2021/06/23 00:45:41;;;;;;;54.35;51.65;;;16.60;99.90;;;;;;5031497;28;20026;-63
2021/06/23 00:48:10;;;;;;;48.47;45.97;;;16.60;99.90;;;;;;5032849;28;20033;-61
2021/06/23 00:50:40;;;;;;;43.50;41.15;;;16.90;99.90;;;;;;5031633;28;20464;-61
2021/06/23 00:53:07;;;;;;;35.05;33.25;;;17.00;99.90;;;;;;5032900;28;20100;-62
2021/06/23 00:55:35;;;;;;;31.40;29.80;;;17.00;99.90;;;;;;5032523;28;20077;-61
2021/06/23 00:58:04;;;;;;;35.08;33.58;;;16.90;99.90;;;;;;5032799;28;20036;-61
2021/06/23 01:00:34;;;;;;;32.08;30.48;;;16.90;99.90;;;;;;5032602;28;20029;-59
2021/06/23 01:03:05;;;;;;;32.17;30.77;;;17.00;99.90;;;;;;5032837;28;20048;-59
2021/06/23 01:05:32;;;;;;;;;;;17.00;99.90;;;;;;5031926;28;20113;-58
2021/06/23 01:08:00;;;;;;;29.77;28.17;;;17.20;99.90;;;;;;5032717;28;19905;-60
2021/06/23 01:10:32;;;;;;;28.70;27.20;;;17.10;99.90;;;;;;5032671;28;20394;-63
2021/06/23 01:13:09;;;;;;;28.92;27.52;;;17.10;99.90;;;;;;5032858;28;20445;-61
2021/06/23 01:15:40;;;;;;;26.70;25.40;;;17.20;99.90;;;;;;5031564;28;20028;-61
2021/06/23 01:18:12;;;;;;;26.83;25.52;;;17.40;99.90;;;;;;5034784;28;20025;-62
2021/06/23 01:20:47;;;;;;;27.80;26.50;;;17.40;99.90;;;;;;5036768;28;20083;-66
2021/06/23 01:23:16;;;;;;;23.90;22.90;;;17.50;99.90;;;;;;5036662;28;20025;-65
2021/06/23 01:25:44;;;;;;;20.70;19.80;;;17.60;99.90;;;;;;5036671;28;20368;-63
2021/06/23 01:28:12;;;;;;;20.08;19.20;;;17.60;99.90;;;;;;5036466;28;20478;-66
2021/06/23 01:30:39;;;;;;;19.85;18.92;;;17.60;99.90;;;;;;5035353;28;20029;-68
2021/06/23 01:33:09;;;;;;;19.38;18.48;;;17.70;99.90;;;;;;5036414;28;20036;-68
2021/06/23 01:35:36;;;;;;;16.40;15.70;;;17.60;99.90;;;;;;5036242;28;20032;-63
2021/06/23 01:38:05;;;;;;;16.20;15.50;;;17.50;99.90;;;;;;5036219;28;20044;-63
2021/06/23 01:40:32;;;;;;;14.50;14.00;;;17.50;99.90;;;;;;5036268;28;20024;-66
2021/06/23 01:43:00;;;;;;;14.73;14.10;;;17.50;99.90;;;;;;5036337;28;20026;-67
2021/06/23 01:45:28;;;;;;;13.50;13.00;;;17.60;99.90;;;;;;5036309;28;20018;-66
2021/06/23 01:47:57;;;;;;;13.40;12.90;;;17.60;99.90;;;;;;5036192;28;20040;-62
2021/06/23 01:50:24;;;;;;;13.68;13.18;;;17.50;99.90;;;;;;5036176;28;20033;-62
2021/06/23 01:52:52;;;;;;;13.52;12.98;;;17.50;99.90;;;;;;5036128;28;20029;-61
2021/06/23 01:55:29;;;;;;;14.15;13.55;;;17.50;99.90;;;;;;5035880;28;20048;-61
2021/06/23 01:58:00;;;;;;;13.63;13.13;;;17.80;99.90;;;;;;5035740;28;20061;-62
2021/06/23 02:00:34;;;;;;;11.90;11.50;;;17.80;99.90;;;;;;5035906;28;20021;-61
2021/06/23 02:03:15;;;;;;;9.90;9.50;;;17.80;99.90;;;;;;5035863;28;20026;-61
2021/06/23 02:05:43;;;;;;;10.10;9.60;;;17.90;99.90;;;;;;5034488;28;20099;-63
2021/06/23 02:08:15;;;;;;;9.43;8.93;;;17.90;99.90;;;;;;5035907;28;20029;-63
2021/06/23 02:11:10;;;;;;;9.02;8.63;;;17.90;99.90;;;;;;5035617;28;20017;-64
2021/06/23 02:13:43;;;;;;;9.00;8.70;;;17.60;99.90;;;;;;5035509;28;20040;-64
2021/06/23 02:16:12;;;;;;;8.13;7.82;;;17.60;99.90;;;;;;5035242;28;20029;-62
2021/06/23 02:18:40;;;;;;;7.78;7.57;;;17.80;99.90;;;;;;5035330;28;20088;-63
2021/06/23 02:21:08;;;;;;;7.70;7.40;;;18.00;99.90;;;;;;5035409;28;20022;-64
2021/06/23 02:23:42;;;;;;;5.93;5.63;;;18.30;99.90;;;;;;5035409;28;20028;-65
2021/06/23 02:26:10;;;;;;;6.35;6.00;;;18.70;99.90;;;;;;5034102;28;20028;-62
2021/06/23 02:28:38;;;;;;;6.30;6.10;;;18.90;99.90;;;;;;5034375;28;20042;-66
2021/06/23 02:31:06;;;;;;;5.55;5.25;;;18.80;99.90;;;;;;5035182;28;20041;-65
2021/06/23 02:33:34;;;;;;;6.30;6.10;;;18.60;99.90;;;;;;5035265;28;20096;-65
2021/06/23 02:36:01;;;;;;;6.18;5.88;;;18.60;99.90;;;;;;5035050;28;20025;-64
2021/06/23 02:38:29;;;;;;;6.07;5.78;;;18.80;99.90;;;;;;5035101;28;20025;-67
2021/06/23 02:40:56;;;;;;;6.68;6.30;;;18.60;99.90;;;;;;5035113;28;20018;-67
2021/06/23 02:43:24;;;;;;;5.70;5.50;;;18.60;99.90;;;;;;5035114;28;20425;-67
2021/06/23 02:45:53;;;;;;;5.70;5.50;;;18.40;99.90;;;;;;5035003;28;20505;-66
2021/06/23 02:48:23;;;;;;;5.40;5.20;;;18.40;99.90;;;;;;5034999;28;20048;-65
2021/06/23 02:51:01;;;;;;;5.78;5.57;;;18.50;99.90;;;;;;5034721;28;20028;-65
2021/06/23 02:53:30;;;;;;;5.30;5.00;;;18.80;99.90;;;;;;5034591;28;20203;-65
2021/06/23 02:55:58;;;;;;;4.63;4.50;;;18.80;99.90;;;;;;5032930;28;20056;-64
2021/06/23 02:58:26;;;;;;;4.50;4.30;;;18.70;99.90;;;;;;5034776;28;20501;-65
2021/06/23 03:00:55;;;;;;;4.60;4.40;;;18.50;99.90;;;;;;5034795;28;20032;-65
2021/06/23 03:03:22;;;;;;;4.40;4.10;;;18.50;99.90;;;;;;5034661;28;20394;-65
2021/06/23 03:05:49;;;;;;;3.05;2.95;;;18.50;99.90;;;;;;5034734;28;20484;-65
2021/06/23 03:08:17;;;;;;;3.95;3.60;;;18.60;99.90;;;;;;5034525;28;20113;-64
2021/06/23 03:10:44;;;;;;;4.55;4.35;;;18.60;99.90;;;;;;5034511;28;20025;-64
2021/06/23 03:13:12;;;;;;;3.40;3.30;;;18.60;99.90;;;;;;5034564;28;20029;-64
2021/06/23 03:15:39;;;;;;;4.60;4.28;;;18.60;99.90;;;;;;5034529;28;20410;-64
2021/06/23 03:18:07;;;;;;;3.70;3.60;;;18.40;99.90;;;;;;5034460;28;20079;-62
2021/06/23 03:20:35;;;;;;;4.20;4.10;;;18.30;99.90;;;;;;5034423;28;20101;-61
2021/06/23 03:23:02;;;;;;;4.05;3.95;;;18.30;99.90;;;;;;5034205;28;20501;-61
2021/06/23 03:25:29;;;;;;;4.05;3.90;;;18.20;99.90;;;;;;5034344;28;20013;-64
2021/06/23 03:27:58;;;;;;;4.47;4.28;;;18.30;99.90;;;;;;5034275;28;20022;-65
2021/06/23 03:30:27;;;;;;;4.60;4.20;;;18.30;99.90;;;;;;5034096;28;20474;-62
2021/06/23 03:32:55;;;;;;;4.70;4.40;;;18.30;99.90;;;;;;5034181;28;20029;-64
2021/06/23 03:35:23;;;;;;;4.70;4.50;;;18.40;99.90;;;;;;5034111;28;20017;-65
2021/06/23 03:37:52;;;;;;;4.47;4.28;;;18.30;99.90;;;;;;5033934;28;20030;-64
2021/06/23 03:40:21;;;;;;;4.53;4.32;;;18.60;99.90;;;;;;5033756;28;20022;-64
2021/06/23 03:42:49;;;;;;;3.42;3.22;;;18.70;99.90;;;;;;5033945;28;20029;-63
2021/06/23 03:45:17;;;;;;;3.45;3.30;;;18.60;99.90;;;;;;5033928;28;20052;-63
2021/06/23 03:47:46;;;;;;;2.97;2.88;;;18.50;99.90;;;;;;5033882;28;20030;-64
2021/06/23 03:50:15;;;;;;;3.30;3.20;;;18.30;99.90;;;;;;5032511;28;20029;-66
2021/06/23 03:52:43;;;;;;;5.03;4.80;;;18.10;99.90;;;;;;5033875;28;20025;-65
2021/06/23 03:55:25;;;;;;;4.82;3.60;;;18.00;99.90;;;;;;5033582;28;20045;-66
2021/06/23 03:57:55;;;;;;;3.30;3.20;;;17.90;99.90;;;;;;5032237;28;20030;-66
2021/06/23 04:00:26;;;;;;;3.55;3.45;;;17.70;99.90;;;;;;5033746;28;20100;-65
2021/06/23 04:02:54;;;;;;;3.70;3.50;;;17.60;99.90;;;;;;5033792;28;20048;-61
2021/06/23 04:05:21;;;;;;;3.90;3.80;;;17.50;99.90;;;;;;5033682;28;20070;-62
2021/06/23 04:07:49;;;;;;;4.05;3.95;;;17.40;99.90;;;;;;5033641;28;20053;-67
2021/06/23 04:10:17;;;;;;;3.97;3.83;;;17.60;99.90;;;;;;5033493;28;20112;-62
2021/06/23 04:12:45;;;;;;;3.65;3.55;;;17.60;99.90;;;;;;5032425;28;20100;-61
2021/06/23 04:15:14;;;;;;;3.78;3.58;;;17.70;99.90;;;;;;5033501;28;20025;-63
2021/06/23 04:17:42;;;;;;;4.38;4.18;;;18.00;99.90;;;;;;5033532;28;20025;-63
2021/06/23 04:20:11;;;;;;;3.90;3.80;;;18.00;99.90;;;;;;5033253;28;20146;-61
2021/06/23 04:22:38;;;;;;;4.60;4.40;;;17.90;99.90;;;;;;5033362;28;20021;-61
2021/06/23 04:25:11;;;;;;;4.63;4.50;;;17.80;99.90;;;;;;5033392;28;20018;-62
2021/06/23 04:27:39;;;;;;;4.50;4.30;;;17.70;99.90;;;;;;5033459;28;20017;-63
2021/06/23 04:30:12;;;;;;;4.00;3.90;;;17.60;99.90;;;;;;5033220;28;20433;-61
2021/06/23 04:32:40;;;;;;;4.57;4.45;;;17.70;99.90;;;;;;5033372;28;20022;-61
2021/06/23 04:35:09;;;;;;;4.50;4.30;;;17.80;99.90;;;;;;5033231;28;20119;-61
2021/06/23 04:37:40;;;;;;;3.97;3.80;;;17.80;99.90;;;;;;5033197;28;20022;-61
2021/06/23 04:40:11;;;;;;;4.43;4.30;;;17.80;99.90;;;;;;5033200;28;20095;-61
2021/06/23 04:42:39;;;;;;;4.40;4.20;;;17.70;99.90;;;;;;5033075;28;20390;-62
2021/06/23 04:45:08;;;;;;;4.30;4.10;;;17.50;99.90;;;;;;5033125;28;20132;-61
2021/06/23 04:47:37;;;;;;;4.43;4.22;;;17.40;99.90;;;;;;5031703;28;20052;-61
2021/06/23 04:50:06;;;;;;;3.70;3.60;;;17.30;99.90;;;;;;5033116;28;20102;-61
2021/06/23 04:52:34;;;;;;;4.97;4.70;;;17.30;99.90;;;;;;5032402;28;20025;-62
2021/06/23 04:55:01;;;;;;;4.47;4.38;;;17.20;99.90;;;;;;5032793;28;20053;-61
2021/06/23 04:57:28;;;;;;;4.50;4.40;;;17.20;99.90;;;;;;5032859;28;20125;-62
2021/06/23 04:59:56;;;;;;;4.55;4.45;;;17.10;99.90;;;;;;5032920;28;20022;-62
2021/06/23 05:02:23;;;;;;;5.13;4.93;;;17.20;99.90;;;;;;5032996;28;20049;-61
2021/06/23 05:04:50;;;;;;;5.07;4.90;;;17.20;99.90;;;;;;5032808;28;20017;-62
2021/06/23 05:07:18;;;;;;;4.72;4.43;;;17.20;99.90;;;;;;5032794;28;20495;-63
2021/06/23 05:09:45;;;;;;;4.70;4.50;;;17.30;99.90;;;;;;5032872;28;20056;-65
2021/06/23 05:12:14;;;;;;;3.95;3.85;;;17.40;99.90;;;;;;5032737;28;20022;-64
2021/06/23 05:14:41;;;;;;;4.22;4.03;;;17.40;99.90;;;;;;5032684;28;20049;-61
2021/06/23 05:17:08;;;;;;;5.00;4.80;;;17.30;99.90;;;;;;5032611;28;20025;-61
2021/06/23 05:19:39;;;;;;;5.10;4.90;;;17.30;99.90;;;;;;5032731;28;20021;-61
2021/06/23 05:22:10;;;;;;;5.35;5.03;;;17.20;99.90;;;;;;5032462;28;20026;-60
2021/06/23 05:24:42;;;;;;;5.13;4.93;;;17.10;99.90;;;;;;5032985;28;20144;-59
2021/06/23 05:27:11;;;;;;;4.95;4.80;;;16.90;99.90;;;;;;5032575;28;20048;-59
2021/06/23 05:29:38;;;;;;;5.20;5.00;;;16.80;99.90;;;;;;5032725;28;20458;-67
2021/06/23 05:32:07;;;;;;;6.10;5.78;;;16.70;99.90;;;;;;5032635;28;20028;-66
2021/06/23 05:34:34;;;;;;;7.22;6.82;;;16.60;99.90;;;;;;5032475;28;20363;-67
2021/06/23 05:37:01;;;;;;;6.85;6.55;;;16.60;99.90;;;;;;5032494;28;20108;-65
2021/06/23 05:39:29;;;;;;;6.65;6.25;;;16.60;99.90;;;;;;5031180;28;20024;-66
2021/06/23 05:41:56;;;;;;;7.10;6.75;;;16.60;99.90;;;;;;5031129;28;20022;-62
2021/06/23 05:44:23;;;;;;;7.38;7.10;;;16.60;99.90;;;;;;5032380;28;20026;-61
2021/06/23 05:46:50;;;;;;;7.70;7.30;;;16.60;99.90;;;;;;5032399;28;20034;-64
2021/06/23 05:49:18;;;;;;;7.57;7.18;;;16.60;99.90;;;;;;5032609;28;20025;-64
2021/06/23 05:51:45;;;;;;;7.93;7.63;;;16.60;99.90;;;;;;5032391;28;20359;-64
2021/06/23 05:54:12;;;;;;;6.93;6.63;;;16.50;99.90;;;;;;5032207;28;20052;-62
2021/06/23 05:56:40;;;;;;;7.28;6.88;;;16.40;99.90;;;;;;5032234;28;20025;-63
2021/06/23 05:59:07;;;;;;;7.38;7.07;;;16.30;99.90;;;;;;5032281;28;20041;-61
2021/06/23 06:01:34;;;;;;;8.40;8.10;;;16.20;99.90;;;;;;5032228;28;20027;-62
2021/06/23 06:04:02;;;;;;;6.95;6.65;;;16.10;99.90;;;;;;5034142;28;20022;-66
2021/06/23 06:06:29;;;;;;;9.15;8.35;;;15.90;99.90;;;;;;5035875;28;20025;-67
2021/06/23 06:08:56;;;;;;;8.18;7.78;;;15.90;99.90;;;;;;5035978;28;20319;-69
2021/06/23 06:11:24;;;;;;;10.00;9.27;;;15.80;99.90;;;;;;5035768;28;20490;-67
2021/06/23 06:13:51;;;;;;;10.55;10.13;;;15.80;99.90;;;;;;5034202;28;20037;-64
2021/06/23 06:16:19;;;;;;;10.85;10.27;;;15.80;99.90;;;;;;5035494;28;20037;-66
2021/06/23 06:18:47;;;;;;;10.40;10.00;;;15.90;99.90;;;;;;5035838;28;20470;-67
2021/06/23 06:21:15;;;;;;;10.15;9.65;;;15.90;99.90;;;;;;5035576;28;20021;-66
2021/06/23 06:23:43;;;;;;;10.43;9.85;;;15.90;99.90;;;;;;5035481;28;20478;-66
2021/06/23 06:26:10;;;;;;;9.50;8.90;;;15.90;99.90;;;;;;5035453;28;20025;-65
2021/06/23 06:28:38;;;;;;;9.73;9.32;;;15.80;99.90;;;;;;5035412;28;20021;-64
2021/06/23 06:31:07;;;;;;;10.25;9.65;;;15.70;99.90;;;;;;5035345;28;20033;-64
2021/06/23 06:33:34;;;;;;;12.35;11.77;;;15.50;99.90;;;;;;5035309;28;20022;-64
2021/06/23 06:36:03;;;;;;;12.10;11.60;;;15.40;99.90;;;;;;5035287;28;20030;-64
2021/06/23 06:38:31;;;;;;;13.18;12.65;;;15.20;99.90;;;;;;5035335;28;20108;-65
2021/06/23 06:40:58;;;;;;;11.88;11.38;;;15.10;99.90;;;;;;5035266;28;20079;-66
2021/06/23 06:43:25;;;;;;;12.82;12.23;;;15.00;99.90;;;;;;5035013;28;20028;-66
2021/06/23 06:45:53;;;;;;;12.60;12.10;;;14.90;99.90;;;;;;5034992;28;20048;-66
2021/06/23 06:48:21;;;;;;;14.30;13.65;;;14.80;99.90;;;;;;5035031;28;20055;-66
2021/06/23 06:50:50;;;;;;;16.95;16.15;;;14.60;99.90;;;;;;5034945;28;20021;-66
2021/06/23 06:53:17;;;;;;;16.85;16.15;;;14.50;99.90;;;;;;5034910;28;20029;-63
2021/06/23 06:55:45;;;;;;;20.30;19.30;;;14.30;99.90;;;;;;5034579;28;20521;-64
2021/06/23 06:58:13;;;;;;;20.77;19.98;;;14.40;99.90;;;;;;5034669;28;20026;-64
2021/06/23 07:00:41;;;;;;;23.10;21.90;;;14.30;99.90;;;;;;5034637;28;20033;-64
2021/06/23 07:03:08;;;;;;;24.95;23.95;;;14.20;99.90;;;;;;5034762;28;20049;-65
2021/06/23 07:05:36;;;;;;;26.02;24.92;;;14.20;99.90;;;;;;5034674;28;20028;-65
2021/06/23 07:08:03;;;;;;;27.48;26.08;;;14.00;99.90;;;;;;5034852;28;20093;-65
2021/06/23 07:10:30;;;;;;;28.80;27.23;;;14.00;99.90;;;;;;5034808;28;20079;-64
2021/06/23 07:12:58;;;;;;;30.15;28.65;;;13.90;99.90;;;;;;5034415;28;20029;-65
2021/06/23 07:15:25;;;;;;;31.45;29.85;;;13.80;99.90;;;;;;5033961;28;20036;-65
2021/06/23 07:17:52;;;;;;;32.78;30.98;;;13.80;99.90;;;;;;5034422;28;20061;-64
2021/06/23 07:20:20;;;;;;;35.17;33.25;;;13.60;99.90;;;;;;5034381;28;20037;-64
2021/06/23 07:22:48;;;;;;;36.08;34.08;;;13.50;99.90;;;;;;5034401;28;20113;-64
2021/06/23 07:25:15;;;;;;;38.85;36.75;;;13.50;99.90;;;;;;5034474;28;20473;-63
2021/06/23 07:27:43;;;;;;;40.47;38.05;;;13.40;99.90;;;;;;5034331;28;20029;-64
2021/06/23 07:30:12;;;;;;;44.40;41.70;;;13.40;99.90;;;;;;5034439;28;20051;-67
2021/06/23 07:32:47;;;;;;;44.72;42.10;;;13.50;99.90;;;;;;5034424;28;20359;-64
2021/06/23 07:38:02;;;;;;;45.10;42.10;;;13.50;99.90;;;;;;5033067;28;20557;-66
2021/06/23 07:41:11;;;;;;;44.28;41.45;;;13.50;99.90;;;;;;5033961;28;20013;-64
2021/06/23 07:43:20;;;;;;;45.13;42.15;;;13.50;99.90;;;;;;5028235;28;20568;-63
2021/06/23 07:45:57;;;;;;;46.28;43.25;;;13.50;99.90;;;;;;5033815;28;20075;-62
2021/06/23 07:48:30;;;;;;;43.22;40.28;;;13.50;99.90;;;;;;5034035;28;20053;-67
2021/06/23 07:51:13;;;;;;;42.72;39.53;;;13.50;99.90;;;;;;5033832;28;20025;-67
2021/06/23 07:53:59;;;;;;;44.95;41.53;;;13.40;99.90;;;;;;5033726;28;20068;-67
2021/06/23 07:56:35;;;;;;;44.88;41.72;;;13.40;99.90;;;;;;5033712;28;20037;-64
2021/06/23 08:10:06;;;;;;;46.38;43.08;;;13.60;99.90;;;;;;5033560;28;20029;-64
2021/06/23 08:12:44;;;;;;;46.30;42.88;;;13.60;99.90;;;;;;5033487;28;20033;-64
2021/06/23 08:15:12;;;;;;;43.92;40.92;;;13.60;99.90;;;;;;5033504;28;20060;-64
2021/06/23 08:17:40;;;;;;;45.78;42.58;;;13.50;99.90;;;;;;5033327;28;20029;-64
2021/06/23 08:20:08;;;;;;;45.97;42.75;;;13.50;99.90;;;;;;5033554;28;20031;-64
2021/06/23 08:22:35;;;;;;;51.72;48.35;;;13.50;99.90;;;;;;5033353;28;20493;-64
2021/06/23 08:25:03;;;;;;;44.30;41.20;;;13.50;99.90;;;;;;5032019;28;20109;-65
2021/06/23 08:27:31;;;;;;;43.17;40.00;;;13.50;99.90;;;;;;5032352;28;20029;-64
2021/06/23 08:29:59;;;;;;;43.28;40.22;;;13.70;99.90;;;;;;5033264;28;20061;-64
2021/06/23 08:32:26;;;;;;;43.75;40.65;;;13.70;99.90;;;;;;5033332;28;20025;-64
2021/06/23 08:34:54;;;;;;;40.92;38.03;;;13.80;99.90;;;;;;5033110;28;20071;-64
2021/06/23 08:37:21;;;;;;;40.67;37.60;;;13.80;99.90;;;;;;5032966;28;20017;-64
2021/06/23 08:39:48;;;;;;;41.00;38.20;;;14.00;99.90;;;;;;5033000;28;20394;-63
2021/06/23 08:42:16;;;;;;;42.10;38.75;;;14.00;99.90;;;;;;5032943;28;20024;-63
2021/06/23 08:44:43;;;;;;;40.05;37.17;;;14.10;99.90;;;;;;5032944;28;20028;-64
2021/06/23 08:47:10;;;;;;;39.53;36.72;;;14.00;99.90;;;;;;5032917;28;20160;-63
2021/06/23 08:49:38;;;;;;;38.85;35.92;;;14.00;99.90;;;;;;5032962;28;20029;-64
2021/06/23 08:52:06;;;;;;;41.33;38.28;;;14.00;99.90;;;;;;5032970;28;20025;-64
2021/06/23 08:54:34;;;;;;;44.47;41.17;;;13.90;99.90;;;;;;5032617;28;20409;-64
2021/06/23 08:57:01;;;;;;;41.78;38.70;;;13.80;99.90;;;;;;5032865;28;20029;-64
2021/06/23 08:59:28;;;;;;;42.45;39.42;;;13.70;99.90;;;;;;5032745;28;20100;-64
2021/06/23 09:01:56;;;;;;;41.70;38.90;;;13.70;99.90;;;;;;5032738;28;20013;-64
2021/06/23 09:04:26;;;;;;;42.95;40.05;;;13.60;99.90;;;;;;5032747;28;20014;-61
2021/06/23 09:06:58;;;;;;;41.50;38.63;;;13.60;99.90;;;;;;5032906;28;20026;-63
2021/06/23 09:09:32;;;;;;;42.80;39.90;;;13.70;99.90;;;;;;5032829;28;20033;-62
2021/06/23 09:12:02;;;;;;;42.30;39.50;;;13.60;99.90;;;;;;5032749;28;20028;-64
2021/06/23 09:14:31;;;;;;;45.42;42.53;;;13.60;99.90;;;;;;5032603;28;20022;-64
2021/06/23 09:17:17;;;;;;;49.97;46.67;;;13.60;99.90;;;;;;5032558;28;20390;-64
2021/06/23 09:19:59;;;;;;;40.85;38.05;;;13.60;99.90;;;;;;5032601;28;20032;-64
2021/06/23 09:22:36;;;;;;;43.55;40.55;;;13.50;99.90;;;;;;5032651;28;20025;-64
2021/06/23 09:25:31;;;;;;;42.58;39.58;;;13.50;99.90;;;;;;5032379;28;20359;-65
2021/06/23 09:28:01;;;;;;;44.80;41.65;;;13.50;99.90;;;;;;5028641;28;20041;-65
2021/06/23 09:30:35;;;;;;;40.10;37.40;;;13.50;99.90;;;;;;5032279;28;20033;-66
2021/06/23 09:33:14;;;;;;;38.47;35.78;;;13.50;99.90;;;;;;5032209;28;20017;-64
2021/06/23 09:35:48;;;;;;;40.05;37.45;;;13.50;99.90;;;;;;5032024;28;20064;-65
2021/06/23 09:38:33;;;;;;;40.33;37.63;;;13.50;99.90;;;;;;5032959;28;20037;-64
2021/06/23 09:41:01;;;;;;;39.30;36.78;;;13.50;99.90;;;;;;5035928;28;20017;-66
2021/06/23 09:43:56;;;;;;;40.28;37.63;;;13.50;99.90;;;;;;5035987;28;20029;-64
2021/06/23 09:46:29;;;;;;;41.22;38.38;;;13.50;99.90;;;;;;5032356;28;20030;-66
2021/06/23 09:49:18;;;;;;;38.47;35.88;;;13.60;99.90;;;;;;5035651;28;20068;-64
2021/06/23 09:52:11;;;;;;;40.38;37.58;;;13.60;99.90;;;;;;5035718;28;20093;-63
2021/06/23 09:54:55;;;;;;;40.25;37.83;;;13.60;99.90;;;;;;5035298;28;20140;-65
2021/06/23 09:57:23;;;;;;;39.25;36.75;;;13.60;99.90;;;;;;5035596;28;20347;-66
2021/06/23 09:59:56;;;;;;;39.80;37.30;;;13.60;99.90;;;;;;5035341;28;20363;-65
2021/06/23 10:02:31;;;;;;;39.72;37.25;;;13.60;99.90;;;;;;5034080;28;20021;-66
2021/06/23 10:05:26;;;;;;;37.40;35.00;;;13.60;99.90;;;;;;5035394;28;20017;-65
2021/06/23 10:07:54;;;;;;;38.17;35.97;;;13.60;99.90;;;;;;5035179;28;20036;-67
2021/06/23 10:10:24;;;;;;;39.15;36.80;;;13.60;99.90;;;;;;5033993;28;20033;-66
2021/06/23 10:12:55;;;;;;;39.20;36.95;;;13.60;99.90;;;;;;5033796;28;20040;-66
2021/06/23 10:15:23;;;;;;;38.75;36.55;;;13.60;99.90;;;;;;5035262;28;20080;-65
2021/06/23 10:17:51;;;;;;;38.00;35.80;;;13.60;99.90;;;;;;5035083;28;20044;-66
2021/06/23 10:20:19;;;;;;;38.05;35.95;;;13.70;99.90;;;;;;5035276;28;20021;-66
2021/06/23 10:22:47;;;;;;;36.67;34.58;;;13.80;99.90;;;;;;5033951;28;20064;-65
2021/06/23 10:25:17;;;;;;;36.08;33.97;;;13.90;99.90;;;;;;5035298;28;20025;-65
2021/06/23 10:27:52;;;;;;;;;;;14.00;99.90;;;;;;5035844;28;20033;-65
2021/06/23 10:30:21;;;;;;;35.42;33.63;;;14.10;99.90;;;;;;5035299;28;19905;-64
2021/06/23 10:32:49;;;;;;;34.90;33.00;;;14.10;99.90;;;;;;5035202;28;20100;-64
2021/06/23 10:35:16;;;;;;;34.85;33.10;;;14.20;99.90;;;;;;5035145;28;20051;-65
2021/06/23 10:37:46;;;;;;;32.10;30.30;;;14.10;99.90;;;;;;5034982;28;20025;-63
2021/06/23 10:40:15;;;;;;;32.10;30.40;;;14.20;99.90;;;;;;5035023;28;20144;-65
2021/06/23 10:42:43;;;;;;;30.98;29.38;;;14.20;99.90;;;;;;5035018;28;20387;-66
2021/06/23 10:45:12;;;;;;;30.73;29.23;;;14.20;99.90;;;;;;5034959;28;20101;-65
2021/06/23 10:47:42;;;;;;;29.75;28.25;;;14.30;99.90;;;;;;5035040;28;20480;-63
2021/06/23 10:50:18;;;;;;;28.67;27.27;;;14.20;99.90;;;;;;5032671;28;20030;-65
2021/06/23 10:52:47;;;;;;;27.50;26.20;;;14.20;99.90;;;;;;5034663;28;20029;-65
2021/06/23 10:55:23;;;;;;;28.13;26.73;;;14.20;99.90;;;;;;5034481;28;20506;-65
2021/06/23 10:57:57;;;;;;;26.92;25.83;;;14.30;99.90;;;;;;5034569;28;20106;-65
2021/06/23 11:00:27;;;;;;;25.92;24.80;;;14.30;99.90;;;;;;5034556;28;20483;-66
2021/06/23 11:03:07;;;;;;;26.08;24.88;;;14.30;99.90;;;;;;5034740;28;20021;-65
2021/06/23 11:05:40;;;;;;;24.97;23.87;;;14.30;99.90;;;;;;5034639;28;20508;-66
2021/06/23 11:08:35;;;;;;;24.83;23.65;;;14.50;99.90;;;;;;5034553;28;20022;-65
2021/06/23 11:11:10;;;;;;;23.02;21.92;;;14.40;99.90;;;;;;5033064;28;20041;-63
2021/06/23 11:13:39;;;;;;;22.98;21.88;;;14.40;99.90;;;;;;5034361;28;20172;-64
2021/06/23 11:16:27;;;;;;;22.60;21.70;;;14.40;99.90;;;;;;5034387;28;20026;-64
2021/06/23 11:19:08;;;;;;;22.50;21.60;;;14.50;99.90;;;;;;5034203;28;20059;-65
2021/06/23 11:21:36;;;;;;;21.80;20.90;;;14.50;99.90;;;;;;5034393;28;20029;-64
2021/06/23 11:24:16;;;;;;;20.40;19.60;;;14.50;99.90;;;;;;5034252;28;20026;-65
2021/06/23 11:26:49;;;;;;;20.63;19.73;;;14.50;99.90;;;;;;5034114;28;20021;-65
2021/06/23 11:29:20;;;;;;;20.90;20.00;;;14.40;99.90;;;;;;5034061;28;20017;-65
2021/06/23 11:31:50;;;;;;;20.30;19.50;;;14.40;99.90;;;;;;5034004;28;20104;-65
2021/06/23 11:34:35;;;;;;;20.57;19.67;;;14.30;99.90;;;;;;5034217;28;20068;-67
2021/06/23 11:37:04;;;;;;;20.50;19.60;;;14.30;99.90;;;;;;5032436;28;20361;-67
2021/06/23 11:39:32;;;;;;;20.15;19.25;;;14.20;99.90;;;;;;5033829;28;20148;-67
2021/06/23 11:41:59;;;;;;;19.73;18.92;;;14.30;99.90;;;;;;5032879;28;20028;-67
2021/06/23 11:44:29;;;;;;;19.10;18.30;;;14.30;99.90;;;;;;5034000;28;20438;-67
2021/06/23 11:47:01;;;;;;;19.00;18.20;;;14.30;99.90;;;;;;5033998;28;20445;-67
2021/06/23 11:49:33;;;;;;;19.65;18.90;;;14.40;99.90;;;;;;5034094;28;20036;-67
2021/06/23 11:52:01;;;;;;;19.70;18.90;;;14.40;99.90;;;;;;5032704;28;20041;-67
2021/06/23 11:54:29;;;;;;;19.40;18.60;;;14.50;99.90;;;;;;5033558;28;20080;-67
2021/06/23 11:56:56;;;;;;;18.67;17.88;;;14.50;99.90;;;;;;5033560;28;20041;-67
2021/06/23 11:59:24;;;;;;;18.30;17.60;;;14.50;99.90;;;;;;5033704;28;20014;-66
2021/06/23 12:01:51;;;;;;;17.92;17.23;;;14.50;99.90;;;;;;5033451;28;20029;-66
2021/06/23 12:04:19;;;;;;;17.60;16.90;;;14.50;99.90;;;;;;5033646;28;20022;-66
2021/06/23 12:06:46;;;;;;;17.30;16.60;;;14.50;99.90;;;;;;5033612;28;20025;-66
2021/06/23 12:09:13;;;;;;;17.20;16.50;;;14.40;99.90;;;;;;5033589;28;20033;-66
2021/06/23 12:11:42;;;;;;;16.70;16.00;;;14.40;99.90;;;;;;5033669;28;20360;-66
2021/06/23 12:14:10;;;;;;;18.52;17.73;;;14.40;99.90;;;;;;5032099;28;20029;-66
2021/06/23 12:16:38;;;;;;;17.85;17.08;;;14.30;99.90;;;;;;5033269;28;20096;-66
2021/06/23 12:19:05;;;;;;;17.55;16.75;;;14.20;99.90;;;;;;5033421;28;20066;-66
2021/06/23 12:21:32;;;;;;;17.38;16.67;;;14.20;99.90;;;;;;5033333;28;20029;-66
2021/06/23 12:24:00;;;;;;;18.27;17.48;;;14.20;99.90;;;;;;5031974;28;20391;-65
2021/06/23 12:26:27;;;;;;;17.98;17.27;;;14.20;99.90;;;;;;5033274;28;20021;-65
2021/06/23 12:28:55;;;;;;;17.65;16.92;;;14.20;99.90;;;;;;5031926;28;20120;-66
2021/06/23 12:31:22;;;;;;;16.70;16.00;;;14.30;99.90;;;;;;5033279;28;20044;-66
2021/06/23 12:33:49;;;;;;;17.95;17.15;;;14.30;99.90;;;;;;5033077;28;20131;-66
2021/06/23 12:36:20;;;;;;;18.27;17.48;;;14.30;99.90;;;;;;5031937;28;20017;-66
2021/06/23 12:38:47;;;;;;;18.88;17.90;;;14.30;99.90;;;;;;5033210;28;20033;-66
2021/06/23 12:41:15;;;;;;;18.40;17.58;;;14.30;99.90;;;;;;5033386;28;20113;-68
2021/06/23 12:43:42;;;;;;;19.23;18.33;;;14.40;99.90;;;;;;5033058;28;20455;-66
2021/06/23 12:46:11;;;;;;;19.90;19.00;;;14.40;99.90;;;;;;5033087;28;20104;-66
2021/06/23 12:48:38;;;;;;;20.50;19.60;;;14.50;99.90;;;;;;5033036;28;20021;-65
2021/06/23 12:51:07;;;;;;;20.80;19.90;;;14.40;99.90;;;;;;5032975;28;20025;-65
2021/06/23 12:53:34;;;;;;;20.50;19.55;;;14.50;99.90;;;;;;5032857;28;20025;-65
2021/06/23 12:56:02;;;;;;;21.48;20.52;;;14.50;99.90;;;;;;5032826;28;20037;-65
2021/06/23 12:58:30;;;;;;;21.08;20.17;;;14.50;99.90;;;;;;5032804;28;20029;-65
2021/06/23 13:00:57;;;;;;;21.80;20.90;;;14.40;99.90;;;;;;5033248;28;20075;-65